sensor_id;sensor_type;location;lat;lon;timestamp;temperature;humidity
40756;DHT22;26461;45.630;9.418;2024-03-17T00:00:34;14.60;72.90
40756;DHT22;26461;45.630;9.418;2024-03-17T00:03:39;14.60;72.90
40756;DHT22;26461;45.630;9.418;2024-03-17T00:06:43;14.60;72.60
40756;DHT22;26461;45.630;9.418;2024-03-17T00:09:47;14.60;72.30
40756;DHT22;26461;45.630;9.418;2024-03-17T00:12:51;14.50;72.40
40756;DHT22;26461;45.630;9.418;2024-03-17T00:15:57;14.50;72.80
40756;DHT22;26461;45.630;9.418;2024-03-17T00:19:01;14.50;73.00
40756;DHT22;26461;45.630;9.418;2024-03-17T00:22:05;14.50;73.20
40756;DHT22;26461;45.630;9.418;2024-03-17T00:25:12;14.50;73.10
40756;DHT22;26461;45.630;9.418;2024-03-17T00:28:17;14.50;73.10
40756;DHT22;26461;45.630;9.418;2024-03-17T00:31:21;14.50;73.20
40756;DHT22;26461;45.630;9.418;2024-03-17T00:34:27;14.40;73.10
40756;DHT22;26461;45.630;9.418;2024-03-17T00:37:32;14.40;73.20
40756;DHT22;26461;45.630;9.418;2024-03-17T00:40:40;14.40;73.50
40756;DHT22;26461;45.630;9.418;2024-03-17T00:43:45;14.30;73.90
40756;DHT22;26461;45.630;9.418;2024-03-17T00:46:49;14.30;74.10
40756;DHT22;26461;45.630;9.418;2024-03-17T00:49:54;14.20;74.40
40756;DHT22;26461;45.630;9.418;2024-03-17T00:52:58;14.20;74.60
40756;DHT22;26461;45.630;9.418;2024-03-17T00:56:04;14.20;74.90
40756;DHT22;26461;45.630;9.418;2024-03-17T00:59:09;14.20;74.90
40756;DHT22;26461;45.630;9.418;2024-03-17T01:02:15;14.10;75.00
40756;DHT22;26461;45.630;9.418;2024-03-17T01:05:23;14.10;75.00
40756;DHT22;26461;45.630;9.418;2024-03-17T01:08:27;14.00;74.80
40756;DHT22;26461;45.630;9.418;2024-03-17T01:11:31;14.00;74.70
40756;DHT22;26461;45.630;9.418;2024-03-17T01:14:36;14.00;74.10
40756;DHT22;26461;45.630;9.418;2024-03-17T01:17:40;13.90;73.90
40756;DHT22;26461;45.630;9.418;2024-03-17T01:20:45;13.90;73.80
40756;DHT22;26461;45.630;9.418;2024-03-17T01:23:50;13.80;73.60
40756;DHT22;26461;45.630;9.418;2024-03-17T01:26:54;13.80;73.60
40756;DHT22;26461;45.630;9.418;2024-03-17T01:29:58;13.80;73.40
40756;DHT22;26461;45.630;9.418;2024-03-17T01:33:02;13.80;73.30
40756;DHT22;26461;45.630;9.418;2024-03-17T01:36:08;13.80;73.20
40756;DHT22;26461;45.630;9.418;2024-03-17T01:39:13;13.70;73.30
40756;DHT22;26461;45.630;9.418;2024-03-17T01:42:17;13.70;73.40
40756;DHT22;26461;45.630;9.418;2024-03-17T01:45:29;13.70;73.30
40756;DHT22;26461;45.630;9.418;2024-03-17T01:48:33;13.70;73.30
40756;DHT22;26461;45.630;9.418;2024-03-17T01:51:38;13.70;73.30
40756;DHT22;26461;45.630;9.418;2024-03-17T01:54:43;13.70;73.50
40756;DHT22;26461;45.630;9.418;2024-03-17T01:57:50;13.70;73.50
40756;DHT22;26461;45.630;9.418;2024-03-17T02:00:56;13.70;73.50
40756;DHT22;26461;45.630;9.418;2024-03-17T02:04:01;13.70;73.80
40756;DHT22;26461;45.630;9.418;2024-03-17T02:07:05;13.70;73.90
40756;DHT22;26461;45.630;9.418;2024-03-17T02:10:10;13.70;73.90
40756;DHT22;26461;45.630;9.418;2024-03-17T02:13:14;13.70;73.70
40756;DHT22;26461;45.630;9.418;2024-03-17T02:16:19;13.70;73.70
40756;DHT22;26461;45.630;9.418;2024-03-17T02:19:24;13.70;73.70
40756;DHT22;26461;45.630;9.418;2024-03-17T02:22:29;13.60;73.50
40756;DHT22;26461;45.630;9.418;2024-03-17T02:25:33;13.70;73.60
40756;DHT22;26461;45.630;9.418;2024-03-17T02:28:41;13.60;73.60
40756;DHT22;26461;45.630;9.418;2024-03-17T02:31:46;13.60;73.80
40756;DHT22;26461;45.630;9.418;2024-03-17T02:34:50;13.60;73.80
40756;DHT22;26461;45.630;9.418;2024-03-17T02:37:54;13.60;73.80
40756;DHT22;26461;45.630;9.418;2024-03-17T02:40:58;13.60;73.80
40756;DHT22;26461;45.630;9.418;2024-03-17T02:44:02;13.60;73.50
40756;DHT22;26461;45.630;9.418;2024-03-17T02:47:07;13.60;73.30
40756;DHT22;26461;45.630;9.418;2024-03-17T02:50:15;13.60;73.40
40756;DHT22;26461;45.630;9.418;2024-03-17T02:53:19;13.60;73.40
40756;DHT22;26461;45.630;9.418;2024-03-17T02:56:23;13.60;73.60
40756;DHT22;26461;45.630;9.418;2024-03-17T02:59:28;13.60;73.80
40756;DHT22;26461;45.630;9.418;2024-03-17T03:02:33;13.60;74.00
40756;DHT22;26461;45.630;9.418;2024-03-17T03:05:37;13.60;74.20
40756;DHT22;26461;45.630;9.418;2024-03-17T03:08:42;13.60;74.30
40756;DHT22;26461;45.630;9.418;2024-03-17T03:11:47;13.60;74.30
40756;DHT22;26461;45.630;9.418;2024-03-17T03:14:51;13.60;74.30
40756;DHT22;26461;45.630;9.418;2024-03-17T03:17:56;13.60;74.40
40756;DHT22;26461;45.630;9.418;2024-03-17T03:21:00;13.70;74.50
40756;DHT22;26461;45.630;9.418;2024-03-17T03:24:05;13.60;74.50
40756;DHT22;26461;45.630;9.418;2024-03-17T03:27:09;13.60;74.70
40756;DHT22;26461;45.630;9.418;2024-03-17T03:30:14;13.70;74.80
40756;DHT22;26461;45.630;9.418;2024-03-17T03:33:20;13.60;74.80
40756;DHT22;26461;45.630;9.418;2024-03-17T03:36:24;13.60;74.90
40756;DHT22;26461;45.630;9.418;2024-03-17T03:39:29;13.60;75.00
40756;DHT22;26461;45.630;9.418;2024-03-17T03:42:36;13.70;75.00
40756;DHT22;26461;45.630;9.418;2024-03-17T03:45:41;13.60;75.10
40756;DHT22;26461;45.630;9.418;2024-03-17T03:49:04;13.60;75.10
40756;DHT22;26461;45.630;9.418;2024-03-17T03:52:09;13.60;75.00
40756;DHT22;26461;45.630;9.418;2024-03-17T03:55:16;13.60;74.90
40756;DHT22;26461;45.630;9.418;2024-03-17T03:58:20;13.60;74.60
40756;DHT22;26461;45.630;9.418;2024-03-17T04:01:24;13.60;74.30
40756;DHT22;26461;45.630;9.418;2024-03-17T04:04:29;13.70;73.90
40756;DHT22;26461;45.630;9.418;2024-03-17T04:07:34;13.70;73.50
40756;DHT22;26461;45.630;9.418;2024-03-17T04:10:39;13.60;72.80
40756;DHT22;26461;45.630;9.418;2024-03-17T04:13:43;13.70;71.90
40756;DHT22;26461;45.630;9.418;2024-03-17T04:16:47;13.60;70.60
40756;DHT22;26461;45.630;9.418;2024-03-17T04:19:52;13.60;69.50
40756;DHT22;26461;45.630;9.418;2024-03-17T04:22:57;13.60;68.80
40756;DHT22;26461;45.630;9.418;2024-03-17T04:26:02;13.70;67.70
40756;DHT22;26461;45.630;9.418;2024-03-17T04:29:07;13.60;66.90
40756;DHT22;26461;45.630;9.418;2024-03-17T04:32:11;13.60;66.30
40756;DHT22;26461;45.630;9.418;2024-03-17T04:35:15;13.60;65.70
40756;DHT22;26461;45.630;9.418;2024-03-17T04:38:20;13.60;65.10
40756;DHT22;26461;45.630;9.418;2024-03-17T04:41:24;13.60;64.30
40756;DHT22;26461;45.630;9.418;2024-03-17T04:44:28;13.60;63.70
40756;DHT22;26461;45.630;9.418;2024-03-17T04:47:33;13.60;63.10
40756;DHT22;26461;45.630;9.418;2024-03-17T04:50:37;13.60;62.20
40756;DHT22;26461;45.630;9.418;2024-03-17T04:53:41;13.60;61.60
40756;DHT22;26461;45.630;9.418;2024-03-17T04:56:46;13.60;60.60
40756;DHT22;26461;45.630;9.418;2024-03-17T04:59:51;13.50;60.00
40756;DHT22;26461;45.630;9.418;2024-03-17T05:02:55;13.50;59.50
40756;DHT22;26461;45.630;9.418;2024-03-17T05:06:03;13.60;59.20
40756;DHT22;26461;45.630;9.418;2024-03-17T05:09:08;13.50;58.50
40756;DHT22;26461;45.630;9.418;2024-03-17T05:12:12;13.50;58.70
40756;DHT22;26461;45.630;9.418;2024-03-17T05:15:17;13.50;58.50
40756;DHT22;26461;45.630;9.418;2024-03-17T05:18:21;13.50;58.30
40756;DHT22;26461;45.630;9.418;2024-03-17T05:21:27;13.50;58.20
40756;DHT22;26461;45.630;9.418;2024-03-17T05:24:35;13.50;57.90
40756;DHT22;26461;45.630;9.418;2024-03-17T05:27:39;13.50;57.60
40756;DHT22;26461;45.630;9.418;2024-03-17T05:30:43;13.50;57.60
40756;DHT22;26461;45.630;9.418;2024-03-17T05:33:48;13.50;57.20
40756;DHT22;26461;45.630;9.418;2024-03-17T05:36:53;13.40;57.10
40756;DHT22;26461;45.630;9.418;2024-03-17T05:39:57;13.50;56.80
40756;DHT22;26461;45.630;9.418;2024-03-17T05:43:02;13.40;57.40
40756;DHT22;26461;45.630;9.418;2024-03-17T05:46:07;13.40;57.30
40756;DHT22;26461;45.630;9.418;2024-03-17T05:49:12;13.40;57.30
40756;DHT22;26461;45.630;9.418;2024-03-17T05:52:17;13.40;57.20
40756;DHT22;26461;45.630;9.418;2024-03-17T05:55:21;13.30;57.30
40756;DHT22;26461;45.630;9.418;2024-03-17T05:58:26;13.30;57.20
40756;DHT22;26461;45.630;9.418;2024-03-17T06:01:30;13.20;57.00
40756;DHT22;26461;45.630;9.418;2024-03-17T06:04:35;13.30;57.60
40756;DHT22;26461;45.630;9.418;2024-03-17T06:07:39;13.30;58.10
40756;DHT22;26461;45.630;9.418;2024-03-17T06:10:46;13.30;59.20
40756;DHT22;26461;45.630;9.418;2024-03-17T06:13:50;13.20;59.90
40756;DHT22;26461;45.630;9.418;2024-03-17T06:16:55;13.20;60.80
40756;DHT22;26461;45.630;9.418;2024-03-17T06:20:00;13.10;59.60
40756;DHT22;26461;45.630;9.418;2024-03-17T06:23:07;13.10;59.40
40756;DHT22;26461;45.630;9.418;2024-03-17T06:26:12;13.10;60.00
40756;DHT22;26461;45.630;9.418;2024-03-17T06:29:17;13.00;60.60
40756;DHT22;26461;45.630;9.418;2024-03-17T06:32:21;13.10;60.90
40756;DHT22;26461;45.630;9.418;2024-03-17T06:35:26;13.10;60.70
40756;DHT22;26461;45.630;9.418;2024-03-17T06:38:31;13.10;60.30
40756;DHT22;26461;45.630;9.418;2024-03-17T06:41:35;13.10;60.50
40756;DHT22;26461;45.630;9.418;2024-03-17T06:44:41;13.10;60.80
40756;DHT22;26461;45.630;9.418;2024-03-17T06:47:45;13.10;59.90
40756;DHT22;26461;45.630;9.418;2024-03-17T06:50:50;13.10;59.50
40756;DHT22;26461;45.630;9.418;2024-03-17T06:53:56;13.20;59.40
40756;DHT22;26461;45.630;9.418;2024-03-17T06:57:00;13.20;59.50
40756;DHT22;26461;45.630;9.418;2024-03-17T07:00:05;13.30;59.50
40756;DHT22;26461;45.630;9.418;2024-03-17T07:03:10;13.30;59.70
40756;DHT22;26461;45.630;9.418;2024-03-17T07:06:14;13.40;59.90
40756;DHT22;26461;45.630;9.418;2024-03-17T07:09:18;13.40;60.30
40756;DHT22;26461;45.630;9.418;2024-03-17T07:12:22;13.50;61.10
40756;DHT22;26461;45.630;9.418;2024-03-17T07:15:26;13.60;60.90
40756;DHT22;26461;45.630;9.418;2024-03-17T07:18:31;13.60;61.00
40756;DHT22;26461;45.630;9.418;2024-03-17T07:21:35;13.60;61.20
40756;DHT22;26461;45.630;9.418;2024-03-17T07:24:40;13.70;60.90
40756;DHT22;26461;45.630;9.418;2024-03-17T07:27:44;13.80;61.60
40756;DHT22;26461;45.630;9.418;2024-03-17T07:30:54;13.90;60.30
40756;DHT22;26461;45.630;9.418;2024-03-17T07:33:58;14.00;59.80
40756;DHT22;26461;45.630;9.418;2024-03-17T07:37:03;14.00;59.20
40756;DHT22;26461;45.630;9.418;2024-03-17T07:40:08;14.10;58.90
40756;DHT22;26461;45.630;9.418;2024-03-17T07:43:15;14.10;58.90
40756;DHT22;26461;45.630;9.418;2024-03-17T07:46:19;14.20;59.00
40756;DHT22;26461;45.630;9.418;2024-03-17T07:49:23;14.30;59.00
40756;DHT22;26461;45.630;9.418;2024-03-17T07:52:27;14.30;59.40
40756;DHT22;26461;45.630;9.418;2024-03-17T07:55:32;14.40;59.90
40756;DHT22;26461;45.630;9.418;2024-03-17T07:58:37;14.40;60.00
40756;DHT22;26461;45.630;9.418;2024-03-17T08:01:42;14.50;60.70
40756;DHT22;26461;45.630;9.418;2024-03-17T08:04:46;14.50;60.20
40756;DHT22;26461;45.630;9.418;2024-03-17T08:07:51;14.50;60.30
40756;DHT22;26461;45.630;9.418;2024-03-17T08:10:56;14.60;60.30
40756;DHT22;26461;45.630;9.418;2024-03-17T08:14:00;14.60;60.30
40756;DHT22;26461;45.630;9.418;2024-03-17T08:17:05;14.60;59.60
40756;DHT22;26461;45.630;9.418;2024-03-17T08:20:11;14.60;59.10
40756;DHT22;26461;45.630;9.418;2024-03-17T08:23:15;14.70;58.80
40756;DHT22;26461;45.630;9.418;2024-03-17T08:26:20;14.70;58.60
40756;DHT22;26461;45.630;9.418;2024-03-17T08:29:24;14.80;58.50
40756;DHT22;26461;45.630;9.418;2024-03-17T08:32:28;14.80;58.70
40756;DHT22;26461;45.630;9.418;2024-03-17T08:35:33;14.90;58.80
40756;DHT22;26461;45.630;9.418;2024-03-17T08:38:40;14.90;59.00
40756;DHT22;26461;45.630;9.418;2024-03-17T08:41:45;14.90;59.10
40756;DHT22;26461;45.630;9.418;2024-03-17T08:44:49;15.00;59.40
40756;DHT22;26461;45.630;9.418;2024-03-17T08:47:53;15.00;59.80
40756;DHT22;26461;45.630;9.418;2024-03-17T08:50:58;15.10;60.40
40756;DHT22;26461;45.630;9.418;2024-03-17T08:54:03;15.00;60.90
40756;DHT22;26461;45.630;9.418;2024-03-17T08:57:07;15.10;61.70
40756;DHT22;26461;45.630;9.418;2024-03-17T09:00:13;15.20;62.10
40756;DHT22;26461;45.630;9.418;2024-03-17T09:03:19;15.20;62.50
40756;DHT22;26461;45.630;9.418;2024-03-17T09:06:24;15.20;62.80
40756;DHT22;26461;45.630;9.418;2024-03-17T09:09:31;15.30;63.20
40756;DHT22;26461;45.630;9.418;2024-03-17T09:12:35;15.30;63.50
40756;DHT22;26461;45.630;9.418;2024-03-17T09:15:40;15.40;63.80
40756;DHT22;26461;45.630;9.418;2024-03-17T09:18:45;15.40;63.70
40756;DHT22;26461;45.630;9.418;2024-03-17T09:21:49;15.40;63.70
40756;DHT22;26461;45.630;9.418;2024-03-17T09:24:53;15.50;64.00
40756;DHT22;26461;45.630;9.418;2024-03-17T09:27:57;15.50;64.30
40756;DHT22;26461;45.630;9.418;2024-03-17T09:31:02;15.60;64.40
40756;DHT22;26461;45.630;9.418;2024-03-17T09:34:09;15.60;64.80
40756;DHT22;26461;45.630;9.418;2024-03-17T09:37:13;15.60;65.00
40756;DHT22;26461;45.630;9.418;2024-03-17T09:40:17;15.60;65.10
40756;DHT22;26461;45.630;9.418;2024-03-17T09:43:22;15.60;65.40
40756;DHT22;26461;45.630;9.418;2024-03-17T09:46:27;15.70;65.50
40756;DHT22;26461;45.630;9.418;2024-03-17T09:49:33;15.70;65.70
40756;DHT22;26461;45.630;9.418;2024-03-17T09:52:37;15.70;65.70
40756;DHT22;26461;45.630;9.418;2024-03-17T09:55:43;15.70;65.70
40756;DHT22;26461;45.630;9.418;2024-03-17T09:58:51;15.70;65.90
40756;DHT22;26461;45.630;9.418;2024-03-17T10:01:55;15.70;65.80
40756;DHT22;26461;45.630;9.418;2024-03-17T10:05:00;15.80;65.60
40756;DHT22;26461;45.630;9.418;2024-03-17T10:08:04;15.70;65.40
40756;DHT22;26461;45.630;9.418;2024-03-17T10:11:08;15.80;65.60
40756;DHT22;26461;45.630;9.418;2024-03-17T10:14:16;15.80;65.70
40756;DHT22;26461;45.630;9.418;2024-03-17T10:17:29;15.80;65.80
40756;DHT22;26461;45.630;9.418;2024-03-17T10:20:33;15.80;65.50
40756;DHT22;26461;45.630;9.418;2024-03-17T10:23:37;15.80;65.50
40756;DHT22;26461;45.630;9.418;2024-03-17T10:27:01;15.80;65.50
40756;DHT22;26461;45.630;9.418;2024-03-17T10:30:17;15.80;65.20
40756;DHT22;26461;45.630;9.418;2024-03-17T10:33:24;15.80;65.10
40756;DHT22;26461;45.630;9.418;2024-03-17T10:36:31;15.80;65.20
40756;DHT22;26461;45.630;9.418;2024-03-17T10:39:35;15.80;65.30
40756;DHT22;26461;45.630;9.418;2024-03-17T10:42:39;15.80;65.20
40756;DHT22;26461;45.630;9.418;2024-03-17T10:45:44;15.80;65.40
40756;DHT22;26461;45.630;9.418;2024-03-17T10:48:49;15.80;65.70
40756;DHT22;26461;45.630;9.418;2024-03-17T10:52:00;15.90;66.00
40756;DHT22;26461;45.630;9.418;2024-03-17T10:55:08;16.00;65.80
40756;DHT22;26461;45.630;9.418;2024-03-17T10:58:36;16.00;65.90
40756;DHT22;26461;45.630;9.418;2024-03-17T11:01:42;16.00;66.30
40756;DHT22;26461;45.630;9.418;2024-03-17T11:04:46;16.00;66.80
40756;DHT22;26461;45.630;9.418;2024-03-17T11:07:52;16.00;66.60
40756;DHT22;26461;45.630;9.418;2024-03-17T11:10:58;16.00;66.60
40756;DHT22;26461;45.630;9.418;2024-03-17T11:14:19;16.00;67.00
40756;DHT22;26461;45.630;9.418;2024-03-17T11:17:26;16.00;67.30
40756;DHT22;26461;45.630;9.418;2024-03-17T11:20:30;16.00;67.60
40756;DHT22;26461;45.630;9.418;2024-03-17T11:23:35;16.10;68.20
40756;DHT22;26461;45.630;9.418;2024-03-17T11:26:40;16.20;68.50
40756;DHT22;26461;45.630;9.418;2024-03-17T11:29:44;16.20;68.60
40756;DHT22;26461;45.630;9.418;2024-03-17T11:32:48;16.20;68.60
40756;DHT22;26461;45.630;9.418;2024-03-17T11:35:52;16.30;68.80
40756;DHT22;26461;45.630;9.418;2024-03-17T11:39:16;16.30;68.60
40756;DHT22;26461;45.630;9.418;2024-03-17T11:42:26;16.30;68.40
40756;DHT22;26461;45.630;9.418;2024-03-17T11:45:30;16.30;68.10
40756;DHT22;26461;45.630;9.418;2024-03-17T11:48:35;16.40;68.00
40756;DHT22;26461;45.630;9.418;2024-03-17T11:51:39;16.40;68.00
40756;DHT22;26461;45.630;9.418;2024-03-17T11:54:46;16.40;68.10
40756;DHT22;26461;45.630;9.418;2024-03-17T11:57:56;16.40;67.80
40756;DHT22;26461;45.630;9.418;2024-03-17T12:01:00;16.50;67.70
40756;DHT22;26461;45.630;9.418;2024-03-17T12:04:05;16.50;67.50
40756;DHT22;26461;45.630;9.418;2024-03-17T12:07:18;16.50;66.90
40756;DHT22;26461;45.630;9.418;2024-03-17T12:10:22;16.50;66.70
40756;DHT22;26461;45.630;9.418;2024-03-17T12:13:33;16.50;66.10
40756;DHT22;26461;45.630;9.418;2024-03-17T12:16:37;16.60;65.80
40756;DHT22;26461;45.630;9.418;2024-03-17T12:19:43;16.50;65.90
40756;DHT22;26461;45.630;9.418;2024-03-17T12:22:48;16.50;65.70
40756;DHT22;26461;45.630;9.418;2024-03-17T12:25:53;16.60;65.80
40756;DHT22;26461;45.630;9.418;2024-03-17T12:28:57;16.60;66.00
40756;DHT22;26461;45.630;9.418;2024-03-17T12:32:14;16.60;65.90
40756;DHT22;26461;45.630;9.418;2024-03-17T12:35:20;16.60;65.90
40756;DHT22;26461;45.630;9.418;2024-03-17T12:38:25;16.70;65.90
40756;DHT22;26461;45.630;9.418;2024-03-17T12:41:29;16.70;65.90
40756;DHT22;26461;45.630;9.418;2024-03-17T12:44:35;16.80;65.80
40756;DHT22;26461;45.630;9.418;2024-03-17T12:47:38;16.80;65.70
40756;DHT22;26461;45.630;9.418;2024-03-17T12:50:45;16.80;65.20
40756;DHT22;26461;45.630;9.418;2024-03-17T12:53:48;16.80;64.70
40756;DHT22;26461;45.630;9.418;2024-03-17T12:57:06;16.90;64.70
40756;DHT22;26461;45.630;9.418;2024-03-17T13:00:29;17.00;64.90
40756;DHT22;26461;45.630;9.418;2024-03-17T13:03:37;17.00;64.90
40756;DHT22;26461;45.630;9.418;2024-03-17T13:06:44;17.00;64.80
40756;DHT22;26461;45.630;9.418;2024-03-17T13:09:47;17.10;64.90
40756;DHT22;26461;45.630;9.418;2024-03-17T13:13:02;17.00;64.80
40756;DHT22;26461;45.630;9.418;2024-03-17T13:16:06;17.10;64.60
40756;DHT22;26461;45.630;9.418;2024-03-17T13:19:12;17.10;64.10
40756;DHT22;26461;45.630;9.418;2024-03-17T13:22:17;17.10;63.50
40756;DHT22;26461;45.630;9.418;2024-03-17T13:25:22;17.10;63.60
40756;DHT22;26461;45.630;9.418;2024-03-17T13:28:27;17.10;63.30
40756;DHT22;26461;45.630;9.418;2024-03-17T13:31:31;17.10;63.50
40756;DHT22;26461;45.630;9.418;2024-03-17T13:34:35;17.10;63.30
40756;DHT22;26461;45.630;9.418;2024-03-17T13:37:39;17.10;63.40
40756;DHT22;26461;45.630;9.418;2024-03-17T13:40:43;17.20;63.80
40756;DHT22;26461;45.630;9.418;2024-03-17T13:43:48;17.10;64.20
40756;DHT22;26461;45.630;9.418;2024-03-17T13:46:52;17.20;64.30
40756;DHT22;26461;45.630;9.418;2024-03-17T13:49:56;17.20;64.20
40756;DHT22;26461;45.630;9.418;2024-03-17T13:53:01;17.10;64.40
40756;DHT22;26461;45.630;9.418;2024-03-17T13:56:07;17.10;64.30
40756;DHT22;26461;45.630;9.418;2024-03-17T13:59:14;17.10;64.40
40756;DHT22;26461;45.630;9.418;2024-03-17T14:02:18;17.20;64.80
40756;DHT22;26461;45.630;9.418;2024-03-17T14:05:24;17.20;65.00
40756;DHT22;26461;45.630;9.418;2024-03-17T14:08:28;17.20;64.10
40756;DHT22;26461;45.630;9.418;2024-03-17T14:11:32;17.20;63.40
40756;DHT22;26461;45.630;9.418;2024-03-17T14:14:36;17.20;63.40
40756;DHT22;26461;45.630;9.418;2024-03-17T14:17:44;17.20;63.50
40756;DHT22;26461;45.630;9.418;2024-03-17T14:20:48;17.20;63.30
40756;DHT22;26461;45.630;9.418;2024-03-17T14:23:53;17.20;63.10
40756;DHT22;26461;45.630;9.418;2024-03-17T14:26:58;17.20;63.10
40756;DHT22;26461;45.630;9.418;2024-03-17T14:30:02;17.20;63.20
40756;DHT22;26461;45.630;9.418;2024-03-17T14:33:07;17.20;63.30
40756;DHT22;26461;45.630;9.418;2024-03-17T14:36:12;17.20;63.30
40756;DHT22;26461;45.630;9.418;2024-03-17T14:39:16;17.20;63.30
40756;DHT22;26461;45.630;9.418;2024-03-17T14:42:20;17.20;63.30
40756;DHT22;26461;45.630;9.418;2024-03-17T14:45:24;17.20;63.30
40756;DHT22;26461;45.630;9.418;2024-03-17T14:48:28;17.20;63.30
40756;DHT22;26461;45.630;9.418;2024-03-17T14:51:32;17.20;62.80
40756;DHT22;26461;45.630;9.418;2024-03-17T14:54:36;17.20;62.70
40756;DHT22;26461;45.630;9.418;2024-03-17T14:57:41;17.20;62.70
40756;DHT22;26461;45.630;9.418;2024-03-17T15:00:44;17.10;62.50
40756;DHT22;26461;45.630;9.418;2024-03-17T15:03:49;17.10;62.90
40756;DHT22;26461;45.630;9.418;2024-03-17T15:06:55;17.20;63.30
40756;DHT22;26461;45.630;9.418;2024-03-17T15:09:59;17.20;63.70
40756;DHT22;26461;45.630;9.418;2024-03-17T15:13:03;17.10;62.90
40756;DHT22;26461;45.630;9.418;2024-03-17T15:16:07;17.20;62.80
40756;DHT22;26461;45.630;9.418;2024-03-17T15:19:11;17.20;62.80
40756;DHT22;26461;45.630;9.418;2024-03-17T15:22:15;17.20;63.20
40756;DHT22;26461;45.630;9.418;2024-03-17T15:25:19;17.10;63.60
40756;DHT22;26461;45.630;9.418;2024-03-17T15:28:24;17.20;64.00
40756;DHT22;26461;45.630;9.418;2024-03-17T15:31:28;17.20;64.60
40756;DHT22;26461;45.630;9.418;2024-03-17T15:34:32;17.20;64.30
40756;DHT22;26461;45.630;9.418;2024-03-17T15:37:37;17.30;64.00
40756;DHT22;26461;45.630;9.418;2024-03-17T15:40:41;17.20;63.80
40756;DHT22;26461;45.630;9.418;2024-03-17T15:43:45;17.20;63.80
40756;DHT22;26461;45.630;9.418;2024-03-17T15:46:49;17.20;63.60
40756;DHT22;26461;45.630;9.418;2024-03-17T15:49:53;17.20;63.30
40756;DHT22;26461;45.630;9.418;2024-03-17T15:52:57;17.20;63.30
40756;DHT22;26461;45.630;9.418;2024-03-17T15:56:02;17.20;63.30
40756;DHT22;26461;45.630;9.418;2024-03-17T15:59:07;17.20;63.20
40756;DHT22;26461;45.630;9.418;2024-03-17T16:02:10;17.20;63.30
40756;DHT22;26461;45.630;9.418;2024-03-17T16:05:19;17.20;63.30
40756;DHT22;26461;45.630;9.418;2024-03-17T16:08:23;17.20;63.30
40756;DHT22;26461;45.630;9.418;2024-03-17T16:11:28;17.20;63.30
40756;DHT22;26461;45.630;9.418;2024-03-17T16:14:34;17.20;63.70
40756;DHT22;26461;45.630;9.418;2024-03-17T16:17:41;17.20;63.80
40756;DHT22;26461;45.630;9.418;2024-03-17T16:23:56;17.20;64.10
40756;DHT22;26461;45.630;9.418;2024-03-17T16:27:05;17.20;63.90
40756;DHT22;26461;45.630;9.418;2024-03-17T16:30:10;17.10;64.20
40756;DHT22;26461;45.630;9.418;2024-03-17T16:33:16;17.10;64.40
40756;DHT22;26461;45.630;9.418;2024-03-17T16:36:21;17.10;64.60
40756;DHT22;26461;45.630;9.418;2024-03-17T16:39:25;17.20;64.90
40756;DHT22;26461;45.630;9.418;2024-03-17T16:42:29;17.20;65.00
40756;DHT22;26461;45.630;9.418;2024-03-17T16:45:34;17.10;65.00
40756;DHT22;26461;45.630;9.418;2024-03-17T16:48:41;17.20;65.20
40756;DHT22;26461;45.630;9.418;2024-03-17T16:51:45;17.30;65.30
40756;DHT22;26461;45.630;9.418;2024-03-17T16:54:49;17.30;65.30
40756;DHT22;26461;45.630;9.418;2024-03-17T16:57:53;17.30;65.30
40756;DHT22;26461;45.630;9.418;2024-03-17T17:00:58;17.30;65.10
40756;DHT22;26461;45.630;9.418;2024-03-17T17:04:06;17.30;64.90
40756;DHT22;26461;45.630;9.418;2024-03-17T17:07:10;17.30;65.70
40756;DHT22;26461;45.630;9.418;2024-03-17T17:10:15;17.30;64.80
40756;DHT22;26461;45.630;9.418;2024-03-17T17:13:22;17.30;64.90
40756;DHT22;26461;45.630;9.418;2024-03-17T17:16:31;17.30;64.90
40756;DHT22;26461;45.630;9.418;2024-03-17T17:19:37;17.30;64.90
40756;DHT22;26461;45.630;9.418;2024-03-17T17:22:42;17.30;65.00
40756;DHT22;26461;45.630;9.418;2024-03-17T17:25:46;17.30;65.10
40756;DHT22;26461;45.630;9.418;2024-03-17T17:28:55;17.30;65.20
40756;DHT22;26461;45.630;9.418;2024-03-17T17:31:59;17.20;65.20
40756;DHT22;26461;45.630;9.418;2024-03-17T17:35:03;17.20;65.20
40756;DHT22;26461;45.630;9.418;2024-03-17T17:38:07;17.10;65.10
40756;DHT22;26461;45.630;9.418;2024-03-17T17:41:12;17.10;65.30
40756;DHT22;26461;45.630;9.418;2024-03-17T17:44:20;17.10;65.40
40756;DHT22;26461;45.630;9.418;2024-03-17T17:47:24;17.00;65.50
40756;DHT22;26461;45.630;9.418;2024-03-17T17:50:28;17.00;65.90
40756;DHT22;26461;45.630;9.418;2024-03-17T17:53:33;17.00;66.50
40756;DHT22;26461;45.630;9.418;2024-03-17T17:56:37;16.90;66.50
40756;DHT22;26461;45.630;9.418;2024-03-17T17:59:42;16.80;66.70
40756;DHT22;26461;45.630;9.418;2024-03-17T18:02:46;16.80;67.00
40756;DHT22;26461;45.630;9.418;2024-03-17T18:05:50;16.70;66.90
40756;DHT22;26461;45.630;9.418;2024-03-17T18:08:53;16.70;66.90
40756;DHT22;26461;45.630;9.418;2024-03-17T18:11:58;16.70;66.60
40756;DHT22;26461;45.630;9.418;2024-03-17T18:15:02;16.70;66.20
40756;DHT22;26461;45.630;9.418;2024-03-17T18:18:06;16.70;66.00
40756;DHT22;26461;45.630;9.418;2024-03-17T18:21:11;16.60;65.90
40756;DHT22;26461;45.630;9.418;2024-03-17T18:24:15;16.60;65.90
40756;DHT22;26461;45.630;9.418;2024-03-17T18:27:20;16.60;66.00
40756;DHT22;26461;45.630;9.418;2024-03-17T18:30:23;16.60;66.40
40756;DHT22;26461;45.630;9.418;2024-03-17T18:33:28;16.50;66.50
40756;DHT22;26461;45.630;9.418;2024-03-17T18:36:32;16.50;66.90
40756;DHT22;26461;45.630;9.418;2024-03-17T18:39:37;16.50;67.00
40756;DHT22;26461;45.630;9.418;2024-03-17T18:42:43;16.50;67.20
40756;DHT22;26461;45.630;9.418;2024-03-17T18:45:47;16.40;67.30
40756;DHT22;26461;45.630;9.418;2024-03-17T18:48:51;16.40;67.50
40756;DHT22;26461;45.630;9.418;2024-03-17T18:51:56;16.30;67.70
40756;DHT22;26461;45.630;9.418;2024-03-17T18:54:59;16.30;68.00
40756;DHT22;26461;45.630;9.418;2024-03-17T18:58:04;16.30;68.20
40756;DHT22;26461;45.630;9.418;2024-03-17T19:01:08;16.30;68.40
40756;DHT22;26461;45.630;9.418;2024-03-17T19:04:11;16.20;68.50
40756;DHT22;26461;45.630;9.418;2024-03-17T19:07:15;16.30;68.80
40756;DHT22;26461;45.630;9.418;2024-03-17T19:10:20;16.20;68.90
40756;DHT22;26461;45.630;9.418;2024-03-17T19:13:24;16.20;69.00
40756;DHT22;26461;45.630;9.418;2024-03-17T19:16:30;16.20;69.00
40756;DHT22;26461;45.630;9.418;2024-03-17T19:19:34;16.20;69.10
40756;DHT22;26461;45.630;9.418;2024-03-17T19:22:44;16.20;69.40
40756;DHT22;26461;45.630;9.418;2024-03-17T19:25:48;16.10;69.40
40756;DHT22;26461;45.630;9.418;2024-03-17T19:28:53;16.00;69.40
40756;DHT22;26461;45.630;9.418;2024-03-17T19:32:01;16.10;69.80